Tiempo atmosférico en la estación meteorológica de San Sebastián De La Gomera, Santa Cruz de Tenerife (15 m.)



Fecha
DESCASC
Temp. máxima en grados centígrados (hora)
DESCASC
Temp. mínima en grados centígrados (hora)
DESCASC
Temp. media en grados centígrados
DESCASC
Racha de viento máxima en m/sg (hora)
DESCASC
Velocidad máxima media en intervalos de 10 minutos(hora)
DESCASC
Precipitaciones diarias en mm
DESCASC
Precipitaciones de 00:00 a 06:00 en mm
DESCASC
Precipitaciones de 06:00 a 12:00 en mm
DESCASC
Precipitaciones de 12:00 a 18:00 en mm
DESCASC
Precipitaciones de 18:00 a 24:00 en mm
DESCASC
05-04-2020 25.6 (17:40) 17.3 (07:40) 21.4 8.33 (21:10) 4.44 (21:10) 0 0 0 0 0
04-04-2020 24.8 (15:00) 16.3 (06:20) 20.5 8.06 (16:10) 3.61 (15:20) 0 0 0 0 0
03-04-2020 21 (16:40) 18.3 (06:40) 19.6 13.33 (12:40) 8.61 (12:40) 10.8 0 0 3.6 7.2
02-04-2020 21.4 (18:30) 15.6 (00:00) 18.5 6.11 (13:20) 4.17 (11:30) 0 0 0 0 0
01-04-2020 23.4 (15:10) 16.2 (00:00) 19.8 7.22 (01:00) 4.17 (01:10) 0 0 0 0 0
31-03-2020 22 (16:10) 17.6 (00:00) 19.8 8.61 (13:20) 5 (01:30) 0 0 0 0 0
30-03-2020 22.7 (15:40) 15.1 (00:00) 18.9 9.72 (13:40) 6.39 (13:40) 0 0 0 0 0
29-03-2020 21.1 (12:30) 14.6 (00:00) 17.9 5.83 (16:30) 4.17 (16:50) 0 0 0 0 0
28-03-2020 21.7 (12:50) 15.5 (00:00) 18.6 10.56 (15:20) 5.28 (15:30) 0 0 0 0 0
27-03-2020 20.9 (16:50) 16 (00:00) 18.4 11.11 (22:50) 6.11 (22:30) 3.1 0 0 0.2 2.9
26-03-2020 20.9 (10:40) 16.3 (00:00) 18.6 8.33 (20:00) 4.17 (20:00) 0.6 0 0.2 0.4 0
25-03-2020 20.3 (10:20) 17.4 (00:00) 18.8 7.78 (04:20) 4.72 (11:30) 0 0 0 0 0
24-03-2020 21.5 (13:50) 16.6 (00:00) 19.1 13.33 (01:20) 6.67 (06:30) 0.1 0.1 0 0 0
23-03-2020 19.1 (16:00) 14.9 (00:00) 17 19.44 (13:50) 9.17 (13:20) 7.4 1.9 3.6 1.8 0.1
22-03-2020 22.8 (15:00) 16.2 (04:50) 19.5 13.33 (16:30) 6.67 (16:30) 0.9 0 0 0.7 0.2
21-03-2020 21 (13:20) 17 (00:00) 19 13.33 (16:00) 5.83 (15:40) 0 0 0 0 0
20-03-2020 21.7 (16:00) 16.9 (00:00) 19.3 16.67 (09:40) 8.33 (09:50) 0 0 0 0 0
19-03-2020 21.6 (14:30) 16.8 (00:00) 19.2 18.89 (04:30) 7.5 (09:20) 0.6 0.5 0.1 0 0
18-03-2020 21 (13:50) 15.9 (00:00) 18.4 17.5 (18:30) 6.39 (19:10) 0 0 0 0 0
17-03-2020 20.2 (14:00) 15.9 (00:00) 18.1 -- (--) -- (--) 0 0 0 0 0
16-03-2020 22.2 (13:10) 17.3 (00:00) 19.8 18.33 (21:50) 7.22 (21:10) 0 0 0 0 0
15-03-2020 21.2 (13:40) 17 (00:00) 19.1 16.11 (22:00) 6.11 (23:50) 0 0 0 0 0
14-03-2020 22 (14:40) 17.8 (00:00) 19.9 15.28 (01:20) 6.67 (00:10) 0 0 0 0 0
13-03-2020 23.4 (13:50) 18.7 (07:50) 21.1 15 (23:59) 7.78 (20:50) 0 0 0 0 0
12-03-2020 25 (02:50) 17.2 (00:00) 21.1 6.67 (02:50) 4.44 (23:59) 0 0 0 0 0
11-03-2020 21.9 (16:30) 16.4 (00:00) 19.1 7.5 (03:00) 5.56 (03:00) 0 0 0 0 0
10-03-2020 24.7 (16:50) 18 (00:00) 21.4 11.67 (18:40) 6.11 (04:00) 0 0 0 0 0

Gráficas

Temp. máximas Temp. mínimas Temp. medias Precipitaciones Rachas de viento máximas Velocidades máximas media en intervalos de 10 minutos

Datos horarios

Fecha y hora oficial Temperatura (ºC) Velocidad del viento (km/h) Dirección del viento Racha (km/h) Dirección de racha Precipitación (mm) Presión (hPa) Tendencia (hPa) Humedad (%)
2020-04-08 23:00:00 20.2 7 Este 14 Nordeste 0 1018.4 1.7 95
2020-04-08 22:00:00 20.3 2 Sudeste 14 Sur 0 1017.6 0.8 93
2020-04-08 21:00:00 20.3 8 Sur 11 Sur 0 1017 0.1 93
2020-04-08 20:00:00 20.6 8 Sur 12 Sur 0 1016.7 -0.3 92
2020-04-08 19:00:00 21.2 9 Sur 12 Sur 0 1016.8 -0.7 92
2020-04-08 18:00:00 21.6 10 Sur 15 Sur 0 1016.9 -0.8 90
2020-04-08 17:00:00 21.4 10 Sur 22 Sur 0 1017 -0.5 91
2020-04-08 16:00:00 21.2 17 Sur 30 Sudeste 0 1017.5 -0.6 90
2020-04-08 15:00:00 22.3 14 Sudeste 31 Este 0 1017.7 -1 84
2020-04-08 14:00:00 23.8 15 Nordeste 32 Nordeste 0 1017.5 -1 77
2020-04-08 13:00:00 23.8 8 Nordeste 33 Nordeste 0 1018.1 -0.2 77
2020-04-08 12:00:00 21.8 4 Sudeste 20 Nordeste 0 1018.7 0.5 88
2020-04-08 11:00:00 20.8 8 Sur 19 Sudeste 0 1018.5 0.7 90
2020-04-08 10:00:00 21 11 Sur 17 Sur 0 1018.3 0.8 87
2020-04-08 09:00:00 20.4 4 Sudeste 11 Sur 0 1018.2 0.8 91
2020-04-08 08:00:00 19.4 0 Calma 26 Norte 0 1017.8 0.4 89
2020-04-08 07:00:00 20 14 Norte 32 Norte 0 1017.5 -0.5 87
2020-04-08 06:00:00 19.4 0 Calma 11 Sur 0 1017.4 -1.1 92
2020-04-08 05:00:00 19.9 5 Norte 16 Noroeste 0 1017.4 -1.4 86
2020-04-08 04:00:00 20 5 Sur 12 Sur 0 1018 -1.2 91
2020-04-08 03:00:00 20.3 3 Sudoeste 18 Nordeste 0 1018.5 -0.6 89
2020-04-08 02:00:00 20.8 3 Noroeste 30 Nordeste 0 1018.8 -0.4 78
2020-04-08 01:00:00 21.2 5 Norte 34 Nordeste 0 1019.2 -0.1 75
2020-04-08 00:00:00 21 16 Norte 36 Nordeste 0 1019.1 0.9 79
2020-04-07 23:00:00 20.7 10 Norte 21 Nordeste 0 1019.2 1.8 88
2020-04-07 22:00:00 20.3 3 Este 9 Sur 0 1019.3 1.4 93
2020-04-07 21:00:00 20.6 6 Sur 13 Sur 0 1018.2 0 93
2020-04-07 20:00:00 20.6 10 Sur 15 Sur 0 1017.4 -0.6 92
2020-04-07 19:00:00 21.9 7 Sur 15 Este 0 1017.9 -0.5 89
2020-04-07 18:00:00 22.3 5 Este 20 Sur 0 1018.2 -0.8 87
2020-04-07 17:00:00 21.5 15 Sur 19 Sudeste 0 1018 -1.7 90
2020-04-07 16:00:00 21.8 11 Sur 16 Sur 0 1018.4 -1.4 86
2020-04-07 15:00:00 23.3 4 Sudeste 10 Sudeste 0 1019 -1 82
2020-04-07 14:00:00 22.4 7 Sudeste 17 Sudeste 0 1019.7 -0.5 88
2020-04-07 13:00:00 22.6 8 Este 28 Nordeste 0 1019.8 0.2 86
2020-04-07 12:00:00 22.6 5 Nordeste 28 Sudeste 0 1020 1 80
2020-04-07 11:00:00 20.6 11 Sur 17 Sur 0 1020.2 1.6 88
2020-04-07 10:00:00 20.7 6 Sur 11 Noroeste 0 1019.6 1.2 86
2020-04-07 09:00:00 19.1 7 Norte 12 Norte 0 1019 0.7 83
2020-04-07 08:00:00 19.5 4 Norte 18 Nordeste 0 1018.6 0.2 89
2020-04-07 07:00:00 19.9 12 Norte 29 Norte 0 1018.4 -0.2 89
2020-04-07 06:00:00 20.1 16 Norte 28 Norte 0 1018.3 -1 88
2020-04-07 05:00:00 20.3 10 Norte 28 Nordeste 0 1018.4 -1.5 86
2020-04-07 04:00:00 19 8 Noroeste 18 Norte 0 1018.6 -1.5 85
2020-04-07 03:00:00 19.4 0 Calma 12 Noroeste 0 1019.3 -1 88
2020-04-07 02:00:00 18.9 6 Noroeste 10 Noroeste 0 1019.9 -0.2 86
2020-04-07 01:00:00 19.8 0 Calma 8 Sur 0 1020.1 0.5 92
2020-04-07 00:00:00 20.2 3 Sur 18 Sur 0 1020.3 1.2 94
2020-04-06 23:00:00 21.5 7 Nordeste 19 Norte 0 1020.1 1.5 79
2020-04-06 22:00:00 21.6 10 Norte 22 Norte 0 1019.6 0.9 78
2020-04-06 21:00:00 21.6 12 Norte 24 Nordeste 0 1019.1 0.4 79
2020-04-06 20:00:00 21.4 8 Nordeste 18 Este 0 1018.6 -0.2 89
2020-04-06 19:00:00 21.2 10 Sur 21 Sur 0 1018.7 -0.5 90
2020-04-06 18:00:00 21.2 12 Sur 22 Sur 0 1018.7 -0.8 91
2020-04-06 17:00:00 21.5 12 Sur 22 Sur 0 1018.8 -1.3 92
2020-04-06 16:00:00 21.9 14 Sur 24 Sur 0 1019.2 -1.2 89
2020-04-06 15:00:00 22.1 11 Sur 24 Sur 0 1019.5 -0.9 89
2020-04-06 14:00:00 22.1 10 Sur 25 Sur 0 1020.1 -0.3 86
2020-04-06 13:00:00 21.5 15 Sur 23 Sudeste 0 1020.4 0.2 89
2020-04-06 12:00:00 21.2 13 Sur 27 Sur 0 1020.4 0.8 91
2020-04-06 11:00:00 21 12 Sur 21 Sur 0 1020.4 1.4 91
2020-04-06 10:00:00 22.3 0 Calma 12 Norte 0 1020.2 2.1 84
2020-04-06 09:00:00 18.8 6 Norte 11 Noroeste 0 1019.6 1.8 84
2020-04-06 08:00:00 18 4 Noroeste 8 Norte 0 1019 1.4 87
2020-04-06 07:00:00 18.4 3 Norte 10 Noroeste 0 1018.1 0.3 87
2020-04-06 06:00:00 18.8 5 Noroeste 10 Noroeste 0 1017.8 -0.2 84
2020-04-06 05:00:00 19.2 5 Noroeste 18 Nordeste 0 1017.6 -0.9 87
2020-04-06 04:00:00 20.5 8 Nordeste 24 Norte 0 1017.8 -1.2 90
2020-04-06 03:00:00 21.1 14 Norte 28 Norte 0 1018 -1.2 86
2020-04-06 02:00:00 21.3 16 Norte 30 Nordeste 0 1018.5 -0.4 86
2020-04-06 01:00:00 21.5 15 Norte 29 Norte 0 1019 0.8 87
2020-04-06 00:00:00 21.8 11 Norte 19 Norte 0 1019.2 2.2 83
2020-04-05 23:00:00 22 10 Norte 24 Norte 0 1018.9 2.3 80
2020-04-05 22:00:00 22.5 12 Norte 30 Norte 0 1018.2 1.7 73
2020-04-05 21:00:00 22.9 16 Norte 29 Norte 0 1017 1 69
2020-04-05 20:00:00 23.4 0 Calma 17 Nordeste 0 1016.6 0.4 81
2020-04-05 19:00:00 22.4 10 Nordeste 23 Nordeste 0 1016.5 0.2 87
2020-04-05 18:00:00 24.7 4 Este 12 Este 0 1016 -0.6 77
2020-04-05 17:00:00 24.6 4 Sudeste 11 Sur 0 1016.2 -0.8 76
2020-04-05 16:00:00 23.7 4 Sudeste 10 Sur 0 1016.3 -1.1 86
2020-04-05 15:00:00 22.7 6 Sudeste 16 Sur 0 1016.6 -0.8 90
2020-04-05 14:00:00 21.2 13 Sur 18 Sur 0 1017 0.1 92
2020-04-05 13:00:00 21.4 12 Sur 15 Sur 0 1017.4 1 89
2020-04-05 12:00:00 21.1 9 Sur 12 Sur 0 1017.4 1.5 92
2020-04-05 11:00:00 20.9 7 Sur 12 Sur 0 1016.9 1.8 91
2020-04-05 10:00:00 21 3 Sur 10 Noroeste 0 1016.4 2.1 89
2020-04-05 09:00:00 18.4 5 Noroeste 12 Norte 0 1015.9 2.1 91
2020-04-05 08:00:00 17.4 7 Norte 13 Norte 0 1015.1 1.6 92
2020-04-05 07:00:00 17.7 5 Norte 12 Noroeste 0 1014.3 0.5 91
2020-04-05 06:00:00 17.8 7 Noroeste 12 Noroeste 0 1013.8 -0.1 89
2020-04-05 05:00:00 18.2 6 Noroeste 14 Noroeste 0 1013.5 -0.5 89
2020-04-05 04:00:00 18.7 8 Noroeste 11 Noroeste 0 1013.8 -0.1 90
2020-04-05 03:00:00 18.7 5 Noroeste 13 Noroeste 0 1013.9 0.2 89
2020-04-05 02:00:00 19.4 4 Noroeste 12 Noroeste 0 1014 0.4 87
2020-04-05 01:00:00 19.5 7 Norte 14 Noroeste 0 1013.9 1.4 89
2020-04-05 00:00:00 20 6 Noroeste 12 Sudoeste 0 1013.7 2.6 90
2020-04-04 23:00:00 20.3 6 Sudoeste 14 Sudoeste 0 1013.6 3.2 92
2020-04-04 22:00:00 20.9 3 Nordeste 22 Norte 0 1012.5 2.3 89
2020-04-04 21:00:00 21.5 12 Nordeste 23 Nordeste 0 1011.1 1 83
2020-04-04 20:00:00 22.1 3 Este 10 Sudeste 0 1010.4 1 81
2020-04-04 19:00:00 23.1 0 Calma 11 Sur 0 1010.2 0.5 83
2020-04-04 18:00:00 22.7 6 Sudeste 21 Norte 0 1010.1 0.1 86
2020-04-04 17:00:00 23.7 9 Nordeste 29 Este 0 1009.4 -1.3 77
2020-04-04 16:00:00 23.2 11 Nordeste 26 Nordeste 0 1009.7 -0.9 79
2020-04-04 15:00:00 24.4 7 Nordeste 18 Este 0 1010 -0.6 71
2020-04-04 14:00:00 22.9 6 Este 18 Nordeste 0 1010.7 0.6 73
2020-04-04 13:00:00 22 9 Norte 17 Norte 0 1010.6 0.8 75
2020-04-04 12:00:00 23 3 Sudeste 10 Este 0 1010.6 1.6 76
2020-04-04 11:00:00 22 0 Calma 6 Sudeste 0 1010.1 1.8 80
2020-04-04 10:00:00 21.2 0 Calma 11 Noroeste 0 1009.8 2.2 87
2020-04-04 09:00:00 17.9 6 Norte 16 Noroeste 0 1009 1.9 82
2020-04-04 08:00:00 17 10 Noroeste 17 Noroeste 0 1008.3 0.8 83
2020-04-04 07:00:00 16.9 12 Noroeste 20 Noroeste 0 1007.6 -0.3 86
2020-04-04 06:00:00 16.6 8 Noroeste 16 Noroeste 0 1007.1 -0.9 89
2020-04-04 05:00:00 16.8 10 Noroeste 16 Norte 0 1007.5 -1.2 91
2020-04-04 04:00:00 17.1 8 Noroeste 13 Noroeste 0 1007.9 -1.1 92
2020-04-04 03:00:00 17.8 8 Noroeste 14 Noroeste 0 1008 -1.1 93
2020-04-04 02:00:00 18.2 6 Noroeste 14 Noroeste 0 1008.7 -0.3 93
2020-04-04 01:00:00 18.4 6 Noroeste 12 Noroeste 0 1009 0.8 95
2020-04-04 00:00:00 18.9 3 Norte 11 Noroeste 0 1009.1 1.4 95
2020-04-03 23:00:00 19.2 6 Noroeste 20 Sur 0 1009 1.4 95
2020-04-03 22:00:00 19.7 9 Sur 27 Sudoeste 0 1008.2 0.4 95
2020-04-03 21:00:00 19.6 13 Sur 28 Sudeste 1 1007.7 -0.2 95
2020-04-03 20:00:00 19.5 12 Sur 30 Sur 4.6 1007.6 -0.4 95
2020-04-03 19:00:00 19.3 9 Sur 28 Sur 1.6 1007.8 -0.9 96
2020-04-03 18:00:00 19.1 10 Sur 34 Sudoeste 3.6 1007.9 -1.5 96
2020-04-03 17:00:00 20.6 11 Sudoeste 31 Sur 0 1008 -2 91
2020-04-03 16:00:00 20 12 Sur 33 Sur 0 1008.7 -1.6 92
2020-04-03 15:00:00 19.7 18 Sur 36 Sur 0 1009.4 -1.4 92
2020-04-03 14:00:00 19.9 20 Sur 39 Sur 0 1010 -0.9 92
2020-04-03 13:00:00 19.7 26 Sur 48 Sur 0 1010.3 -0.6 92
2020-04-03 12:00:00 19.3 26 Sur 38 Sur 0 1010.8 0.1 91
2020-04-03 11:00:00 19.6 15 Sur 41 Sur 0 1010.9 0.1 89
2020-04-03 10:00:00 19.1 18 Sur 29 Sur 0 1010.9 0.5 90
2020-04-03 09:00:00 18.5 18 Sur 25 Sudeste 0 1010.7 0.3 92
2020-04-03 08:00:00 18.6 12 Sur 24 Sudeste 0 1010.8 0.1 89
2020-04-03 07:00:00 18.5 9 Sur 27 Sur 0 1010.4 -1.2 89
2020-04-03 06:00:00 18.7 16 Sur 22 Sudeste 0 1010.4 -1.5 92
2020-04-03 05:00:00 18.8 8 Sur 19 Sur 0 1010.7 -2.1 93
2020-04-03 04:00:00 18.5 13 Sur 18 Sudeste 0 1011.6 -2.1 92
2020-04-03 03:00:00 18.7 13 Sudeste 20 Sudeste 0 1011.9 -2.5 92
2020-04-03 02:00:00 18.8 3 Sur 6 Sur 0 1012.8 -1.8 91
2020-04-03 01:00:00 19.1 0 Calma 6 Sudeste 0 1013.7 -0.6 89
2020-04-03 00:00:00 19.4 0 Calma 8 Sur 0 1014.4 0.5 90
2020-04-02 23:00:00 19.5 2 Sur 9 Este 0 1014.6 0.8 89
2020-04-02 22:00:00 19.4 3 Este 10 Sudeste 0 1014.3 0.7 89
2020-04-02 21:00:00 19.6 6 Sudeste 17 Sur 0 1013.9 0.1 91
2020-04-02 20:00:00 19.5 9 Sur 14 Sur 0 1013.8 0.1 91
2020-04-02 19:00:00 20.3 7 Sur 13 Sur 0 1013.6 -1 85
2020-04-02 18:00:00 20.2 9 Sur 16 Sudeste 0 1013.8 -1.6 84
2020-04-02 17:00:00 20.3 12 Sur 18 Sur 0 1013.7 -2.1 85
2020-04-02 16:00:00 20.3 12 Sur 18 Sur 0 1014.6 -1.5 84
2020-04-02 15:00:00 20.4 11 Sur 16 Sudeste 0 1015.4 -1.5 83
2020-04-02 14:00:00 20.6 10 Sudeste 22 Sudeste 0 1015.8 -0.9 83
2020-04-02 13:00:00 19.9 13 Sudeste 20 Sur 0 1016.1 0.5 86
2020-04-02 12:00:00 19 14 Sur 21 Sur 0 1016.9 2.4 87
2020-04-02 11:00:00 19.3 12 Sudeste 17 Sudeste 0 1016.7 2.3 86
2020-04-02 10:00:00 20.3 0 Calma 13 Nordeste 0 1015.6 1.8 77
2020-04-02 09:00:00 16.8 7 Noroeste 15 Norte 0 1014.5 0.8 75
2020-04-02 08:00:00 15.9 7 Noroeste 16 Noroeste 0 1014.4 1.2 77
2020-04-02 07:00:00 16.1 8 Noroeste 14 Noroeste 0 1013.8 -0.3 78
2020-04-02 06:00:00 16.4 8 Noroeste 15 Noroeste 0 1013.7 -0.9 79
2020-04-02 05:00:00 16.3 8 Noroeste 14 Noroeste 0 1013.2 -2.2 84
2020-04-02 04:00:00 16.8 7 Noroeste 14 Noroeste 0 1014.1 -2 83
2020-04-02 03:00:00 17.1 7 Noroeste 12 Noroeste 0 1014.6 -1.6 83
2020-04-02 02:00:00 17.6 7 Noroeste 12 Noroeste 0 1015.4 -0.5 83
2020-04-02 01:00:00 18.2 5 Noroeste 11 Noroeste 0 1016.1 1 83
2020-04-02 00:00:00 18.6 6 Noroeste 18 Norte 0 1016.2 1.1 86
2020-04-01 23:00:00 19 10 Norte 19 Nordeste 0 1015.9 1.5 86
2020-04-01 22:00:00 19.2 9 Norte 18 Noroeste 0 1015.1 0.9 86
2020-04-01 21:00:00 19.3 8 Norte 22 Nordeste 0 1015.1 1 86
2020-04-01 20:00:00 19.9 8 Nordeste 21 Norte 0 1014.4 0.3 86
2020-04-01 19:00:00 20.5 5 Nordeste 10 Nordeste 0 1014.2 0 84
2020-04-01 18:00:00 21.4 3 Sudeste 13 Este 0 1014.1 -0.4 81
2020-04-01 17:00:00 21.8 4 Este 14 Sur 0 1014.1 -1 77
2020-04-01 16:00:00 21.8 5 Sudeste 19 Este 0 1014.2 -1.5 75
2020-04-01 15:00:00 22.7 4 Sudeste 15 Este 0 1014.5 -1.3 73
2020-04-01 14:00:00 21.9 3 Nordeste 13 Norte 0 1015.1 -0.8 75
2020-04-01 13:00:00 22.2 4 Sudeste 15 Este 0 1015.7 0.2 74
2020-04-01 12:00:00 21.7 4 Este 15 Este 0 1015.8 1 74
2020-04-01 11:00:00 21.6 4 Este 13 Nordeste 0 1015.9 1.6 77
2020-04-01 10:00:00 20.5 0 Calma 12 Norte 0 1015.5 1.8 78
2020-04-01 09:00:00 16.8 7 Noroeste 15 Noroeste 0 1014.8 1.5 86
2020-04-01 08:00:00 16.5 6 Noroeste 12 Noroeste 0 1014.3 0.7 86
2020-04-01 07:00:00 16.9 10 Noroeste 16 Norte 0 1013.7 -0.2 86
2020-04-01 06:00:00 17.7 7 Norte 16 Norte 0 1013.3 -0.9 86
2020-04-01 05:00:00 17 7 Noroeste 12 Noroeste 0 1013.6 -0.9 86
2020-04-01 04:00:00 18 6 Norte 14 Norte 0 1013.9 -0.6 84
2020-04-01 03:00:00 18.1 6 Noroeste 13 Norte 0 1014.2 -0.4 85
2020-04-01 02:00:00 18.5 9 Norte 26 Noroeste 0 1014.5 0 86
2020-04-01 01:00:00 18.7 12 Noroeste 26 Noroeste 0 1014.5 0.5 85
2020-04-01 00:00:00 18.8 13 Norte 29 Norte 0 1014.6 1.4 86
2020-03-31 23:00:00 19.1 14 Norte 27 Noroeste 0 1014.5 1.6 87
2020-03-31 22:00:00 19.3 9 Noroeste 20 Nordeste 0 1014 1.6 85
2020-03-31 21:00:00 19.5 10 Norte 23 Norte 0 1013.2 0.6 85
2020-03-31 20:00:00 19.7 10 Norte 22 Norte 0 1012.9 0.7 83
2020-03-31 19:00:00 20 6 Nordeste 23 Nordeste 0 1012.4 0.2 84
2020-03-31 18:00:00 19.9 9 Sur 16 Sur 0 1012.6 -0.1 86
2020-03-31 17:00:00 21.3 4 Sudeste 15 Nordeste 0 1012.2 -0.6 76
2020-03-31 16:00:00 21.6 9 Nordeste 19 Nordeste 0 1012.2 -0.5 77
2020-03-31 15:00:00 20.6 8 Norte 16 Nordeste 0 1012.7 -0.1 81
2020-03-31 14:00:00 20.5 7 Nordeste 31 Este 0 1012.8 0.5 83
2020-03-31 13:00:00 20.7 10 Nordeste 25 Nordeste 0 1012.7 0.9 85
2020-03-31 12:00:00 20 14 Nordeste 27 Nordeste 0 1012.8 1 87
2020-03-31 11:00:00 19.7 12 Nordeste 28 Noroeste 0 1012.3 0.9 89
2020-03-31 10:00:00 18.8 9 Norte 21 Noroeste 0 1011.8 1 90
2020-03-31 09:00:00 18.6 5 Norte 17 Nordeste 0 1011.8 1.2 92
2020-03-31 08:00:00 18.3 5 Noroeste 20 Norte 0 1011.4 0.7 93
2020-03-31 07:00:00 18.2 10 Norte 22 Norte 0 1010.8 -0.2 93
2020-03-31 06:00:00 17.9 5 Norte 14 Norte 0 1010.6 -0.6 94
2020-03-31 05:00:00 17.7 6 Noroeste 18 Norte 0 1010.7 -0.7 95
2020-03-31 04:00:00 18.7 3 Norte 18 Nordeste 0 1011 -0.6 93
2020-03-31 03:00:00 18.9 3 Noroeste 17 Noroeste 0 1011.2 -0.8 86
2020-03-31 02:00:00 19.1 8 Norte 29 Norte 0 1011.4 -0.9 85
2020-03-31 01:00:00 19.2 10 Norte 19 Norte 0 1011.6 -0.3 85
2020-03-31 00:00:00 18.3 4 Norte 9 Noroeste 0 1012 0.2 92
2020-03-30 23:00:00 18.5 6 Noroeste 9 Noroeste 0 1012.3 0.8 91
2020-03-30 22:00:00 19.2 4 Sur 10 Sur 0 1011.9 0.4 92
2020-03-30 21:00:00 19.4 4 Sur 8 Sur 0 1011.8 0.3 91
2020-03-30 20:00:00 19.7 0 Calma 6 Este 0 1011.5 0 89
2020-03-30 19:00:00 20 4 Sur 13 Sur 0 1011.5 -0.8 90
2020-03-30 18:00:00 20.7 4 Este 32 Nordeste 0 1011.5 -1.5 87
2020-03-30 17:00:00 20.5 15 Nordeste 34 Norte 0 1011.5 -2.2 84
2020-03-30 16:00:00 22 13 Nordeste 26 Nordeste 0 1012.3 -1.9 77
2020-03-30 15:00:00 20.7 12 Sur 29 Sur 0 1013 -1.5 81
2020-03-30 14:00:00 19.7 19 Sur 35 Sur 0 1013.7 -1 89
2020-03-30 13:00:00 19.7 22 Sur 32 Sur 0 1014.2 -0.1 87
2020-03-30 12:00:00 19.1 19 Sur 27 Sur 0 1014.5 0.2 86
2020-03-30 11:00:00 20.2 4 Sudeste 12 Sur 0 1014.7 0.7 84
2020-03-30 10:00:00 19.5 3 Este 13 Norte 0 1014.3 0.8 82
2020-03-30 09:00:00 16.2 8 Norte 15 Noroeste 0 1014.3 0.8 89
2020-03-30 08:00:00 15.2 8 Noroeste 14 Noroeste 0 1014 0.3 91
2020-03-30 07:00:00 15.6 11 Noroeste 16 Noroeste 0 1013.5 -0.7 89
2020-03-30 06:00:00 15.8 10 Noroeste 16 Noroeste 0 1013.5 -1.3 89
2020-03-30 05:00:00 16.1 8 Norte 14 Noroeste 0 1013.7 -2.1 89
2020-03-30 04:00:00 16 6 Norte 15 Noroeste 0 1014.2 -1.9 89
2020-03-30 03:00:00 16.2 8 Noroeste 14 Noroeste 0 1014.8 -1.3 88
2020-03-30 02:00:00 16.4 7 Noroeste 13 Noroeste 0 1015.8 -0.5 88
2020-03-30 01:00:00 16.7 7 Noroeste 12 Noroeste 0 1016.1 -0.1 89
2020-03-30 00:00:00 17.5 5 Noroeste 9 Noroeste 0 1016.1 0.5 89
2020-03-29 23:00:00 17.7 4 Noroeste 8 Noroeste 0 1016.3 0.6 88
2020-03-29 22:00:00 18.5 2 Oeste 9 Nordeste 0 1016.2 -0.1 86
2020-03-29 21:00:00 18.7 4 Este 12 Nordeste 0 1015.6 -0.7 86
2020-03-29 20:00:00 18.9 4 Este 10 Este 0 1015.7 -0.5 84
2020-03-29 19:00:00 19.2 3 Sudeste 16 Sur 0 1016.3 -0.6 85
2020-03-29 18:00:00 18.8 11 Sur 20 Sur 0 1016.3 -1.5 86
2020-03-29 17:00:00 19.5 14 Sur 21 Sur 0 1016.2 -2.1 81
2020-03-29 16:00:00 19.5 13 Sur 18 Sur 0 1016.9 -1.5 82
2020-03-29 15:00:00 19.8 10 Sur 16 Sur 0 1017.8 -0.5 81
2020-03-29 14:00:00 19.8 9 Sur 14 Sur 0 1018.3 0 82
2020-03-29 13:00:00 20.3 7 Sudeste 12 Sur 0 1018.4 0.4 79
2020-03-29 12:00:00 20.6 4 Sudeste 12 Este 0 1018.3 0.9 77
2020-03-29 11:00:00 20.1 5 Nordeste 15 Nordeste 0 1018.3 0.9 75
2020-03-29 10:00:00 18.8 3 Nordeste 11 Noroeste 0 1018 1.1 72
2020-03-29 09:00:00 15.5 7 Norte 14 Noroeste 0 1017.4 0.5 82
2020-03-29 08:00:00 14.6 8 Noroeste 14 Noroeste 0 1017.4 0.8 85
2020-03-29 07:00:00 14.7 8 Noroeste 15 Noroeste 0 1016.9 -0.2 87
2020-03-29 06:00:00 14.9 9 Noroeste 14 Noroeste 0 1016.9 -1 87
2020-03-29 05:00:00 15.3 9 Noroeste 14 Noroeste 0 1016.6 -1.8 87
2020-03-29 04:00:00 15.4 9 Noroeste 14 Noroeste 0 1017.1 -1.5 87
2020-03-29 00:00:00 16.8 8 Noroeste 12 Noroeste 0 1018.6 1 87
2020-03-28 23:00:00 17.7 5 Noroeste 12 Noroeste 0 1018.3 1.3 86
2020-03-28 22:00:00 18.3 3 Norte 13 Nordeste 0 1018.2 1.7 85
2020-03-28 21:00:00 18.6 4 Nordeste 10 Nordeste 0 1017.6 1.3 85
2020-03-28 20:00:00 18.9 6 Nordeste 13 Este 0 1017 1.2 83
2020-03-28 19:00:00 18.8 6 Nordeste 17 Este 0 1016.5 1.1 84
2020-03-28 18:00:00 18.9 8 Sudeste 21 Este 0 1016.3 1.2 84
2020-03-28 17:00:00 19.6 3 Norte 28 Nordeste 0 1015.8 0.4 81
2020-03-28 16:00:00 20 16 Nordeste 38 Nordeste 0 1015.4 -0.4 77
2020-03-28 15:00:00 20.6 13 Nordeste 33 Este 0 1015.1 -1 71
2020-03-28 14:00:00 20.8 6 Nordeste 27 Nordeste 0 1015.4 -0.8 71
2020-03-28 13:00:00 21.2 3 Norte 34 Nordeste 0 1015.8 -0.4 69
2020-03-28 12:00:00 20.2 11 Norte 33 Noroeste 0 1016.1 0.4 73
2020-03-28 11:00:00 19.8 9 Norte 31 Norte 0 1016.2 1.5 77
2020-03-28 10:00:00 19 10 Norte 32 Norte 0 1016.2 2 77
2020-03-28 09:00:00 18.1 9 Norte 26 Noroeste 0 1015.7 1.8 80
2020-03-28 08:00:00 17.1 9 Norte 24 Nordeste 0 1014.7 1 82
2020-03-28 07:00:00 16.3 9 Noroeste 27 Norte 0 1014.2 0.7 85
2020-03-28 06:00:00 16.4 7 Norte 27 Norte 0 1013.9 0.3 83
2020-03-28 05:00:00 15.7 6 Noroeste 17 Noroeste 0 1013.7 -0.2 89
2020-03-28 04:00:00 15.6 9 Noroeste 16 Noroeste 0 1013.5 -0.6 89
2020-03-28 03:00:00 15.9 8 Noroeste 23 Norte 0 1013.6 -0.6 89
2020-03-28 02:00:00 16.5 10 Norte 26 Nordeste 0 1013.9 0.1 87
2020-03-28 01:00:00 16.8 13 Noroeste 35 Norte 0 1014.1 0.5 88
2020-03-28 00:00:00 16.8 17 Noroeste 38 Nordeste 0.5 1014.2 0.9 89
2020-03-27 23:00:00 16.7 20 Norte 40 Norte 0.5 1013.8 1.2 90
2020-03-27 22:00:00 16.7 8 Noroeste 27 Noroeste 0.1 1013.6 1.4 91
2020-03-27 21:00:00 16.9 8 Norte 24 Norte 0 1013.3 1.9 89
2020-03-27 20:00:00 16.9 13 Norte 34 Norte 1.6 1012.6 1.5 90
2020-03-27 19:00:00 16.7 15 Noroeste 32 Norte 0.2 1012.2 0.8 92
2020-03-27 18:00:00 19.5 5 Este 30 Nordeste 0 1011.4 -0.3 83
2020-03-27 17:00:00 20.3 4 Noroeste 18 Oeste 0 1011.1 -1.3 75
2020-03-27 16:00:00 19 10 Sur 16 Sur 0.1 1011.4 -1.7 85
2020-03-27 15:00:00 19.9 4 Sudeste 10 Sur 0.1 1011.7 -1.6 81
2020-03-27 14:00:00 19.4 8 Sur 18 Sur 0 1012.4 -0.9 80
2020-03-27 13:00:00 19.7 12 Sur 21 Sur 0 1013.1 0 81
2020-03-27 12:00:00 19.4 14 Sur 25 Sur 0 1013.3 0.6 78
2020-03-27 11:00:00 19.5 15 Sur 23 Sur 0 1013.3 0.9 75
2020-03-27 10:00:00 20.3 4 Sudeste 18 Nordeste 0 1013.1 1.1 73
2020-03-27 09:00:00 19.4 6 Norte 12 Norte 0 1012.7 1 74
2020-03-27 08:00:00 16.5 5 Noroeste 12 Noroeste 0 1012.4 0.7 81
2020-03-27 07:00:00 16.5 5 Noroeste 11 Norte 0 1012 0.3 81
2020-03-27 06:00:00 17.1 5 Norte 15 Norte 0 1011.7 -0.5 79
2020-03-27 05:00:00 17.4 3 Noroeste 11 Noroeste 0 1011.7 -1 77
2020-03-27 04:00:00 17.7 4 Norte 19 Norte 0 1011.7 -1.4 77
2020-03-27 03:00:00 17.6 4 Noroeste 16 Noroeste 0 1012.2 -1 79
2020-03-27 02:00:00 17.5 8 Norte 17 Norte 0 1012.7 -0.6 82
2020-03-27 01:00:00 17.4 9 Norte 31 Noroeste 0 1013.1 -0.2 80
2020-03-27 00:00:00 17.6 12 Noroeste 27 Noroeste 0 1013.2 0.3 80
2020-03-26 23:00:00 17.6 8 Norte 20 Noroeste 0 1013.3 0.8 81
2020-03-26 22:00:00 17.8 7 Norte 26 Norte 0 1013.3 0.8 80
2020-03-26 21:00:00 17.9 12 Norte 30 Noroeste 0 1012.9 0.5 77
2020-03-26 20:00:00 18.2 15 Norte 30 Noroeste 0 1012.5 0.3 81
2020-03-26 19:00:00 18.5 12 Noroeste 29 Noroeste 0 1012.5 0.2 78
2020-03-26 18:00:00 18.7 6 Sur 16 Sur 0 1012.4 -0.5 84
2020-03-26 17:00:00 19.4 10 Sur 27 Oeste 0 1012.2 -1.3 77
2020-03-26 16:00:00 20.3 0 Calma 24 Nordeste 0 1012.3 -1.7 71
2020-03-26 15:00:00 20.1 9 Nordeste 26 Nordeste 0 1012.9 -1.8 77
2020-03-26 14:00:00 19.9 3 Sudeste 11 Sudeste 0 1013.5 -1.2 78
2020-03-26 13:00:00 18.7 3 Sudeste 15 Sudoeste 0.4 1014 -0.6 87
2020-03-26 12:00:00 18.3 7 Norte 24 Noroeste 0.2 1014.7 0.8 85
2020-03-26 11:00:00 19.4 4 Oeste 22 Nordeste 0 1014.7 1.1 76
2020-03-26 10:00:00 20.1 9 Nordeste 22 Nordeste 0 1014.6 1.1 74
2020-03-26 09:00:00 19.1 5 Noroeste 14 Oeste 0 1013.9 0.7 79
2020-03-26 08:00:00 17.4 3 Noroeste 15 Noroeste 0 1013.6 0.6 85
2020-03-26 07:00:00 17 5 Noroeste 11 Noroeste 0 1013.5 0.3 85
2020-03-26 06:00:00 16.4 6 Noroeste 11 Noroeste 0 1013.2 -0.4 87
2020-03-26 05:00:00 16.5 4 Noroeste 8 Noroeste 0 1013 -1.2 87
2020-03-26 04:00:00 16.4 6 Noroeste 11 Noroeste 0 1013.2 -1.5 89
2020-03-26 03:00:00 17 5 Noroeste 10 Noroeste 0 1013.6 -1.4 89
2020-03-26 02:00:00 17.9 2 Norte 9 Este 0 1014.2 -1 85
2020-03-26 01:00:00 18 3 Noroeste 19 Noroeste 0 1014.7 -0.5 85
2020-03-26 00:00:00 18.2 10 Noroeste 23 Nordeste 0 1015 0.5 81
2020-03-25 23:00:00 18.2 8 Noroeste 21 Noroeste 0 1015.2 0.8 79
2020-03-25 22:00:00 18.3 9 Norte 19 Norte 0 1015.2 0.9 77
2020-03-25 21:00:00 18.3 8 Noroeste 22 Noroeste 0 1014.5 0.1 80
2020-03-25 20:00:00 18.3 7 Norte 15 Norte 0 1014.4 -0.1 82
2020-03-25 19:00:00 18.2 9 Norte 19 Noroeste 0 1014.3 -0.4 84
2020-03-25 18:00:00 19.3 9 Noroeste 22 Noroeste 0 1014.4 -0.9 80
2020-03-25 17:00:00 19.3 0 Calma 13 Sur 0 1014.5 -1.1 86
2020-03-25 16:00:00 18.9 9 Sur 15 Sur 0 1014.7 -1.4 86
2020-03-25 15:00:00 18.9 9 Sur 19 Sur 0 1015.3 -0.9 85
2020-03-25 14:00:00 18.6 12 Sur 19 Sur 0 1015.6 -0.7 86
2020-03-25 13:00:00 18.5 14 Sur 23 Sur 0 1016.1 -0.1 86
2020-03-25 12:00:00 18.6 14 Sur 23 Sur 0 1016.2 0.3 86
2020-03-25 11:00:00 18.8 11 Sur 19 Sur 0 1016.3 0.8 83
2020-03-25 10:00:00 19.6 4 Noroeste 14 Norte 0 1016.2 1.4 74
2020-03-25 09:00:00 18.6 0 Calma 13 Noroeste 0 1015.9 1.5 82
2020-03-25 08:00:00 18.1 7 Noroeste 21 Noroeste 0 1015.5 1.6 81
2020-03-25 07:00:00 18 11 Noroeste 22 Noroeste 0 1014.8 0.8 78
2020-03-25 06:00:00 17.5 8 Noroeste 21 Norte 0 1014.4 0 78
2020-03-25 05:00:00 17.8 10 Noroeste 28 Noroeste 0 1013.9 -1 78
2020-03-25 04:00:00 17.5 9 Norte 23 Norte 0 1014 -1.7 83
2020-03-25 03:00:00 17.8 10 Norte 24 Noroeste 0 1014.4 -1.1 86
2020-03-25 02:00:00 18 9 Norte 22 Noroeste 0 1014.9 -1.5 86
2020-03-25 01:00:00 18 7 Norte 26 Norte 0 1015.7 -0.7 84
2020-03-25 00:00:00 17.8 13 Norte 26 Norte 0 1015.5 -0.4 84
2020-03-24 23:00:00 18 12 Norte 23 Norte 0 1016.4 1.4 84
2020-03-24 22:00:00 18 12 Norte 34 Norte 0 1016.4 1.5 82
2020-03-24 21:00:00 18.1 14 Noroeste 36 Noroeste 0 1015.9 1.3 76
2020-03-24 20:00:00 18 13 Noroeste 35 Noroeste 0 1015 0.6 75
2020-03-24 19:00:00 18.6 12 Norte 32 Nordeste 0 1014.9 0.3 69
2020-03-24 18:00:00 20 11 Noroeste 34 Oeste 0 1014.6 -0.6 66
2020-03-24 17:00:00 20.7 11 Noroeste 36 Noroeste 0 1014.4 -0.7 63
2020-03-24 16:00:00 21.1 12 Noroeste 28 Noroeste 0 1014.6 -1.3 63
2020-03-24 15:00:00 19.7 10 Noroeste 37 Nordeste 0 1015.2 -1.2 77
2020-03-24 14:00:00 20.8 12 Norte 47 Nordeste 0 1015.1 -1.2 66
2020-03-24 13:00:00 19.9 14 Norte 36 Nordeste 0 1015.9 -0.3 76
2020-03-24 12:00:00 20 16 Noroeste 46 Oeste 0 1016.4 1.3 77
2020-03-24 11:00:00 19.6 11 Noroeste 38 Nordeste 0 1016.3 1.6 78
2020-03-24 10:00:00 19.3 13 Noroeste 35 Norte 0 1016.2 2.5 80
2020-03-24 09:00:00 18.8 13 Noroeste 40 Norte 0 1015.1 1.2 83
2020-03-24 08:00:00 17.9 12 Norte 36 Norte 0 1014.7 0.7 86
2020-03-24 07:00:00 17.6 18 Norte 44 Noroeste 0 1013.7 -0.2 87
2020-03-24 06:00:00 17.7 20 Norte 43 Noroeste 0 1013.9 -0.1 87
2020-03-24 05:00:00 17.8 20 Norte 39 Noroeste 0 1014 -0.2 86
2020-03-24 04:00:00 17.6 13 Norte 33 Norte 0 1013.9 -0.3 89
2020-03-24 03:00:00 17.5 11 Norte 36 Norte 0 1014 -0.2 90
2020-03-24 02:00:00 17.4 19 Noroeste 48 Noroeste 0.1 1014.2 -0.2 88
2020-03-24 01:00:00 17.8 14 Norte 43 Nordeste 0 1014.2 0.2 85
2020-03-24 00:00:00 17.5 18 Norte 46 Norte 0.1 1014.2 0.8 91
2020-03-23 23:00:00 18 15 Norte 42 Noroeste 0 1014.4 2 84
2020-03-23 22:00:00 17.7 16 Norte 38 Nordeste 0 1014 2.3 80
2020-03-23 21:00:00 17.7 14 Norte 40 Norte 0 1013.4 2.1 87
2020-03-23 20:00:00 17.6 18 Norte 50 Noroeste 0 1012.4 1.5 86
2020-03-23 19:00:00 17.8 15 Norte 52 Noroeste 0 1011.7 1.8 82
2020-03-23 18:00:00 18.1 17 Norte 59 Noroeste 0 1011.3 0.8 83
2020-03-23 17:00:00 18 21 Noroeste 62 Noroeste 0.3 1010.9 0.7 86
2020-03-23 16:00:00 18.4 19 Norte 59 Norte 0 1009.9 -0.6 79
2020-03-23 15:00:00 16.9 27 Norte 68 Noroeste 0.5 1010.5 -1 92
2020-03-23 14:00:00 17.2 28 Norte 70 Norte 0 1010.2 -1.3 89
2020-03-23 13:00:00 17.5 29 Norte 65 Noroeste 1 1010.5 -0.4 81
2020-03-23 12:00:00 18.3 18 Norte 54 Norte 0 1011.5 1.5 77
2020-03-23 11:00:00 18.3 22 Norte 55 Norte 0.1 1011.5 2 79
2020-03-23 10:00:00 18.2 21 Norte 60 Norte 0 1010.9 1.6 77
2020-03-23 09:00:00 16.4 22 Norte 57 Noroeste 3 1010 1.1 89
2020-03-23 08:00:00 17.1 24 Norte 50 Noroeste 0 1009.5 1.4 78
2020-03-23 07:00:00 16.3 21 Norte 53 Noroeste 0.5 1009.3 0.7 85
2020-03-23 06:00:00 16.2 20 Norte 50 Norte 0.5 1008.9 -0.6 82
2020-03-23 05:00:00 16.6 19 Norte 59 Norte 0.1 1008.1 -1.9 80
2020-03-23 04:00:00 16.6 19 Noroeste 49 Noroeste 0 1008.6 -2.1 77
2020-03-23 03:00:00 15.5 19 Noroeste 48 Noroeste 1.3 1009.5 -1.3 89
2020-03-23 02:00:00 17.4 16 Noroeste 59 Noroeste 0 1010 -1.6 75
2020-03-23 01:00:00 17.2 11 Noroeste 37 Oeste 0 1010.7 -0.9 72
2020-03-23 00:00:00 17.5 17 Norte 36 Noroeste 0 1010.8 -1.2 77
2020-03-22 23:00:00 17.7 17 Norte 46 Norte 0 1011.6 -0.1 76
2020-03-22 22:00:00 17.4 17 Norte 45 Norte 0 1011.6 0 79
2020-03-22 21:00:00 17.5 13 Noroeste 48 Noroeste 0 1012 0.2 76
2020-03-22 20:00:00 17.8 15 Norte 38 Norte 0.1 1011.7 0.1 79
2020-03-22 19:00:00 17.6 17 Norte 38 Norte 0.1 1011.6 0 79
2020-03-22 18:00:00 17.5 12 Norte 40 Noroeste 0.7 1011.8 -0.2 90
2020-03-22 17:00:00 18.2 13 Norte 48 Noroeste 0 1011.6 -1.5 87
2020-03-22 16:00:00 21.1 4 Oeste 18 Sudeste 0 1011.6 -2.6 67
2020-03-22 15:00:00 21.5 4 Este 30 Sur 0 1012 -2.7 62
2020-03-22 14:00:00 19.7 16 Sur 26 Sur 0 1013.1 -2.7 74
2020-03-22 13:00:00 21 5 Este 34 Nordeste 0 1014.2 -1.9 65
2020-03-22 12:00:00 21.4 7 Norte 29 Nordeste 0 1014.7 -1.5 61
2020-03-22 11:00:00 19.1 10 Noroeste 37 Nordeste 0 1015.8 -0.2 74
2020-03-22 10:00:00 18.6 15 Norte 33 Norte 0 1016.1 0.4 75
2020-03-22 09:00:00 17.6 9 Norte 26 Norte 0 1016.2 0.7 76
2020-03-22 08:00:00 16.7 10 Norte 30 Norte 0 1016 0.1 79
2020-03-22 07:00:00 16.3 9 Norte 30 Norte 0 1015.7 -0.5 80
2020-03-22 06:00:00 16.3 10 Norte 33 Norte 0 1015.5 -1.3 77
2020-03-22 05:00:00 16.3 10 Noroeste 31 Oeste 0 1015.9 -1.7 84
2020-03-22 04:00:00 17.1 8 Norte 28 Nordeste 0 1016.2 -2 72
2020-03-22 03:00:00 17.2 10 Norte 34 Noroeste 0 1016.8 -1.6 72
2020-03-22 02:00:00 17.3 12 Noroeste 33 Noroeste 0 1017.6 -1.2 72
2020-03-22 01:00:00 17.2 15 Noroeste 40 Norte 0 1018.2 -0.6 71
2020-03-22 00:00:00 17.3 14 Norte 34 Oeste 0 1018.4 -0.2 66
2020-03-21 23:00:00 17.5 13 Noroeste 37 Oeste 0 1018.8 0.5 68
2020-03-21 22:00:00 17.5 11 Norte 42 Nordeste 0 1018.8 0.8 72
2020-03-21 21:00:00 17.6 12 Norte 44 Norte 0 1018.6 0.7 77
2020-03-21 20:00:00 17.7 9 Norte 32 Noroeste 0 1018.3 0.3 77
2020-03-21 19:00:00 17.9 13 Noroeste 37 Nordeste 0 1018 -0.1 74
2020-03-21 18:00:00 18.3 12 Noroeste 34 Oeste 0 1017.9 -0.6 70
2020-03-21 17:00:00 19.1 17 Noroeste 40 Oeste 0 1018 -1.3 70
2020-03-21 16:00:00 19.9 18 Noroeste 48 Oeste 0 1018.1 -2.2 62
2020-03-21 15:00:00 20.2 14 Noroeste 38 Oeste 0 1018.5 -2.2 62
2020-03-21 14:00:00 20 11 Norte 35 Noroeste 0 1019.3 -1.5 62
2020-03-21 13:00:00 19.6 14 Norte 39 Noroeste 0 1020.3 -0.2 61
2020-03-21 12:00:00 20.1 10 Norte 37 Norte 0 1020.7 0.6 57
2020-03-21 11:00:00 19.5 9 Norte 42 Noroeste 0 1020.8 1.2 64
2020-03-21 10:00:00 18.9 11 Noroeste 35 Noroeste 0 1020.5 1.2 66
2020-03-21 09:00:00 18.4 12 Norte 30 Nordeste 0 1020.1 1.3 71
2020-03-21 08:00:00 17.4 12 Norte 34 Noroeste 0 1019.6 1 72
2020-03-21 07:00:00 17.1 9 Norte 27 Noroeste 0 1019.3 0.9 73
2020-03-21 06:00:00 17.3 10 Noroeste 29 Norte 0 1018.8 0.3 75
2020-03-21 05:00:00 17.3 8 Norte 35 Noroeste 0 1018.6 -0.3 75
2020-03-21 04:00:00 17.5 10 Norte 35 Noroeste 0 1018.4 -0.7 76
2020-03-21 03:00:00 17.3 13 Noroeste 37 Noroeste 0 1018.5 -1 80
2020-03-21 02:00:00 17.4 14 Norte 39 Noroeste 0 1018.9 -0.6 83
2020-03-21 01:00:00 17.4 14 Noroeste 43 Noroeste 0 1019.1 -0.7 90
2020-03-21 00:00:00 17.5 16 Norte 35 Nordeste 0 1019.5 0.3 90
2020-03-20 23:00:00 17.7 13 Norte 35 Noroeste 0 1019.5 0.8 89
2020-03-20 22:00:00 17.6 14 Norte 38 Noroeste 0 1019.8 1.8 90
2020-03-20 21:00:00 17.4 17 Noroeste 42 Noroeste 0 1019.2 1.2 90
2020-03-20 20:00:00 17.8 20 Norte 42 Noroeste 0 1018.7 0.9 89
2020-03-20 19:00:00 18.3 21 Noroeste 40 Noroeste 0 1018 0.1 86
2020-03-20 18:00:00 18.9 14 Noroeste 33 Norte 0 1018 0 81
2020-03-20 17:00:00 19.6 14 Noroeste 36 Noroeste 0 1017.8 -0.7 77
2020-03-20 16:00:00 21.3 10 Norte 44 Noroeste 0 1017.9 -0.9 68
2020-03-20 15:00:00 20.7 14 Noroeste 46 Norte 0 1018 -0.9 66
2020-03-20 14:00:00 20.8 18 Noroeste 46 Noroeste 0 1018.5 -0.1 63
2020-03-20 13:00:00 20 20 Noroeste 46 Noroeste 0 1018.8 0.6 67
2020-03-20 12:00:00 20.5 15 Noroeste 41 Noroeste 0 1018.9 1.1 65
2020-03-20 11:00:00 20.1 20 Noroeste 52 Noroeste 0 1018.6 1.3 72
2020-03-20 10:00:00 19.1 29 Noroeste 60 Noroeste 0 1018.2 1.9 78
2020-03-20 09:00:00 19 26 Norte 48 Noroeste 0 1017.8 1.9 77
2020-03-20 08:00:00 18.3 15 Noroeste 42 Noroeste 0 1017.3 1.6 81
2020-03-20 07:00:00 18.2 21 Norte 44 Noroeste 0 1016.3 0.5 78
2020-03-20 06:00:00 18.2 23 Norte 49 Norte 0 1015.9 -0.4 79
2020-03-20 05:00:00 18.2 16 Norte 45 Norte 0 1015.7 -1 82
2020-03-20 04:00:00 18.2 18 Norte 45 Norte 0 1015.8 -0.9 85
2020-03-20 03:00:00 18.2 20 Norte 42 Norte 0 1016.3 -1.5 86
2020-03-20 02:00:00 18.4 17 Norte 56 Norte 0 1016.7 -1.3 86
2020-03-20 01:00:00 18.4 24 Noroeste 47 Nordeste 0 1016.7 -0.9 90
2020-03-20 00:00:00 18.6 17 Norte 40 Noroeste 0 1017.8 0.2 89
2020-03-19 23:00:00 18.6 16 Norte 41 Noroeste 0 1018 1 89
2020-03-19 22:00:00 18.8 22 Noroeste 46 Noroeste 0 1017.6 0.9 89
2020-03-19 21:00:00 18.8 14 Norte 51 Norte 0 1017.6 1.2 90
2020-03-19 20:00:00 19 17 Norte 46 Noroeste 0 1017 1.2 90
2020-03-19 19:00:00 19.1 15 Noroeste 42 Noroeste 0 1016.7 1 89
2020-03-19 18:00:00 19.5 15 Norte 44 Nordeste 0 1016.4 0.4 89
2020-03-19 17:00:00 20 21 Noroeste 49 Noroeste 0 1015.8 0 87
2020-03-19 16:00:00 20.4 18 Norte 57 Nordeste 0 1015.7 -0.7 85
2020-03-19 15:00:00 20.7 15 Norte 55 Norte 0 1016 -1 83
2020-03-19 14:00:00 20.7 20 Noroeste 55 Norte 0 1015.8 -0.7 84
2020-03-19 13:00:00 21.5 15 Norte 45 Norte 0 1016.4 0 83
2020-03-19 12:00:00 20.6 19 Norte 51 Norte 0 1017 0.8 86
2020-03-19 11:00:00 19.5 20 Norte 54 Norte 0 1016.5 1.1 86
2020-03-19 10:00:00 19 25 Noroeste 55 Nordeste 0.1 1016.4 1.2 86
2020-03-19 09:00:00 18.5 20 Norte 50 Norte 0 1016.2 1.4 89
2020-03-19 08:00:00 18.2 19 Norte 51 Norte 0 1015.4 0.7 87
2020-03-19 07:00:00 17.4 15 Norte 53 Noroeste 0 1015.2 0.2 92
2020-03-19 06:00:00 17.6 19 Noroeste 50 Norte 0 1014.8 -0.4 89
2020-03-19 05:00:00 17.3 22 Norte 68 Nordeste 0.2 1014.7 -1 92
2020-03-19 04:00:00 17 20 Norte 47 Norte 0.3 1015 -1 91
2020-03-19 03:00:00 17.9 17 Noroeste 47 Oeste 0 1015.2 -1.2 80
2020-03-19 02:00:00 17.8 19 Norte 55 Noroeste 0 1015.7 -1 79
2020-03-19 01:00:00 17.9 19 Noroeste 46 Noroeste 0 1016 -0.4 75
2020-03-19 00:00:00 17.7 17 Noroeste 55 Nordeste 0 1016.4 -0.1 82
2020-03-18 23:00:00 17.9 18 Norte 48 Nordeste 0 1016.7 0.7 77
2020-03-18 22:00:00 18 19 Norte 54 Oeste 0 1016.4 0.7 74
2020-03-18 21:00:00 18.1 18 Norte 41 Noroeste 0 1016.5 1.3 78
2020-03-18 20:00:00 18 17 Norte 53 Norte 0 1016 0.3 75
2020-03-18 19:00:00 18.3 19 Norte 63 Norte 0 1015.7 -0.3 73
2020-03-18 18:00:00 18.7 17 Norte 52 Nordeste 0 1015.2 -0.9 72
2020-03-18 17:00:00 19.9 16 Norte 54 Nordeste 0 1015.7 -0.6 69
2020-03-18 16:00:00 19.7 10 Norte 48 Nordeste 0 1016 -1.1 68
2020-03-18 15:00:00 20 13 Norte 51 Oeste 0 1016.1 -1.4 65
2020-03-18 14:00:00 19.4 21 Noroeste 52 Noroeste 0 1016.3 -1.7 65
2020-03-18 13:00:00 20.2 19 Noroeste 47 Noroeste 0 1017.1 -0.8 66
2020-03-18 12:00:00 19.3 18 Norte 47 Noroeste 0 1017.5 -0.1 69
2020-03-18 11:00:00 19.1 15 Norte 60 Nordeste 0 1018 0.8 72
2020-03-18 10:00:00 18.3 17 Norte 54 Norte 0 1017.9 1 74
2020-03-18 09:00:00 18 11 Norte 47 Oeste 0 1017.6 1.1 74
2020-03-18 08:00:00 17 14 Norte 42 Norte 0 1017.2 1.1 84
2020-03-18 07:00:00 17.2 15 Noroeste 41 Norte 0 1016.9 0.6 76
2020-03-18 06:00:00 17.3 17 Norte 48 Norte 0 1016.5 -0.3 71
2020-03-18 05:00:00 17.2 19 Norte 55 Noroeste 0 1016.1 -1.3 77
2020-03-18 04:00:00 16.5 19 Norte 45 Noroeste 0 1016.3 -0.9 86
2020-03-18 03:00:00 16.4 18 Norte 48 Noroeste 0 1016.8 -1.6 88
2020-03-18 02:00:00 16.3 22 Noroeste 59 Noroeste 0 1017.4 -1 85
2020-03-18 01:00:00 16.8 22 Noroeste 55 Noroeste 0 1017.2 -1.5 79
2020-03-18 00:00:00 16.1 22 Noroeste 54 Noroeste 0 1018.4 0.3 85
2020-03-17 23:00:00 17 15 Norte 65 Noroeste 0 1018.4 0.5 83
2020-03-17 22:00:00 17.3 15 Norte 55 Noroeste 0 1018.7 1.1 80
2020-03-17 21:00:00 17.1 17 Norte 50 Noroeste 0 1018.1 0.9 81
2020-03-17 20:00:00 17.2 22 Norte 58 Noroeste 0 1017.9 0.8 82
2020-03-17 19:00:00 16.9 20 Noroeste 51 Norte 0 1017.6 0.2 89
2020-03-17 18:00:00 18 15 Norte 45 Norte 0 1017.2 -0.4 79
2020-03-17 17:00:00 18.4 15 Norte 44 Noroeste 0 1017.1 -0.9 79
2020-03-17 16:00:00 18.7 15 Norte 44 Noroeste 0 1017.4 -1.5 80
2020-03-17 15:00:00 19.4 12 Norte 45 Noroeste 0 1017.6 -1.4 71
2020-03-17 14:00:00 19.6 9 Norte 38 Noroeste 0 1018 -1.2 69
2020-03-17 13:00:00 19.2 12 Norte 41 Noroeste 0 1018.9 -- 73
2020-03-17 12:00:00 19.4 13 Norte 47 Noroeste 0 1019 -0.3 66
2020-03-17 11:00:00 18.2 15 Noroeste -- -- -- 1019.2 0.5 76
2020-03-17 10:00:00 -- -- -- -- -- -- -- -- --
2020-03-17 09:00:00 16.4 17 Norte 42 Nordeste 0 1019.3 1.7 82
2020-03-17 08:00:00 16.4 17 Norte 52 Noroeste 0 1018.7 1.3 80
2020-03-17 07:00:00 16.4 19 Norte 53 Noroeste 0 1017.7 0.4 79
2020-03-17 06:00:00 16.4 19 Noroeste 48 Norte 0 1017.6 0 80
2020-03-17 05:00:00 16.5 17 Norte 58 Noroeste 0 1017.4 -0.6 83
2020-03-17 04:00:00 16.6 18 Norte 45 Noroeste 0 1017.3 -0.6 80
2020-03-17 03:00:00 16.8 18 Noroeste 44 Noroeste 0 1017.6 -0.7 80
2020-03-17 02:00:00 17 15 Norte 55 Noroeste 0 1018 -0.7 83
2020-03-17 01:00:00 17.4 15 Norte 51 Nordeste 0 1017.9 -0.3 77
2020-03-17 00:00:00 17.8 18 Norte 52 Norte 0 1018.3 0 77
2020-03-16 23:00:00 17.8 19 Norte 55 Noroeste 0 1018.7 1.2 83
2020-03-16 22:00:00 17.9 23 Noroeste 66 Nordeste 0 1018.2 1 83
2020-03-16 21:00:00 17.8 19 Norte 53 Noroeste 0 1018.3 1.2 87
2020-03-16 20:00:00 17.7 19 Norte 56 Noroeste 0 1017.5 -0.2 89
2020-03-16 19:00:00 18.1 23 Noroeste 63 Noroeste 0 1017.2 -0.6 84
2020-03-16 18:00:00 19 18 Norte 55 Noroeste 0 1017.1 -0.5 76
2020-03-16 17:00:00 19.8 15 Norte 45 Nordeste 0 1017.7 -0.4 81
2020-03-16 16:00:00 20.3 16 Norte 53 Noroeste 0 1017.8 -1.3 75
2020-03-16 15:00:00 21 14 Noroeste 51 Norte 0 1017.6 -1.3 69
2020-03-16 14:00:00 21.1 12 Noroeste 51 Nordeste 0 1018.1 -0.9 61
2020-03-16 13:00:00 21.3 17 Norte 51 Nordeste 0 1019.1 0.3 55
2020-03-16 12:00:00 20.7 17 Norte 54 Noroeste 0 1018.9 0.4 61
2020-03-16 11:00:00 19.9 22 Norte 55 Nordeste 0 1019 1.2 67
2020-03-16 10:00:00 19.8 18 Norte 56 Noroeste 0 1018.8 1.4 59
2020-03-16 09:00:00 18.8 21 Norte 51 Norte 0 1018.5 1.2 68
2020-03-16 08:00:00 17.7 18 Norte 62 Oeste 0 1017.8 1 87
2020-03-16 07:00:00 18.1 22 Norte 62 Norte 0 1017.4 0.2 79
2020-03-16 06:00:00 18 23 Norte 51 Norte 0 1017.3 -0.6 81
2020-03-16 05:00:00 17.5 18 Norte 52 Noroeste 0 1016.8 -1.6 86
2020-03-16 04:00:00 17.8 18 Norte 44 Noroeste 0 1017.2 -1.2 84
2020-03-16 03:00:00 17.6 15 Norte 41 Noroeste 0 1017.9 -0.5 83
2020-03-16 02:00:00 17.7 13 Norte 44 Noroeste 0 1018.4 -0.1 84
2020-03-16 01:00:00 18 18 Noroeste 47 Noroeste 0 1018.4 0.2 80
2020-03-16 00:00:00 18 19 Noroeste 46 Noroeste 0 1018.4 0.5 77
2020-03-15 23:00:00 17.8 16 Norte 47 Noroeste 0 1018.5 1.3 85
2020-03-15 22:00:00 18.4 20 Norte 58 Oeste 0 1018.2 1.5 76
2020-03-15 21:00:00 18.5 18 Noroeste 49 Norte 0 1017.9 1.4 74
2020-03-15 20:00:00 18.3 17 Norte 56 Norte 0 1017.2 0.7 78
2020-03-15 19:00:00 18.5 13 Norte 42 Nordeste 0 1016.7 -0.3 77
2020-03-15 18:00:00 18.8 13 Norte 45 Noroeste 0 1016.5 -0.8 77
2020-03-15 17:00:00 19.3 14 Noroeste 39 Nordeste 0 1016.5 -1.1 75
2020-03-15 16:00:00 19.9 9 Noroeste 32 Norte 0 1017 -1.2 73
2020-03-15 15:00:00 20.4 14 Norte 41 Norte 0 1017.3 -1.4 71
2020-03-15 14:00:00 20.2 14 Norte 57 Norte 0 1017.6 -0.7 71
2020-03-15 13:00:00 19.9 16 Norte 46 Nordeste 0 1018.2 0.1 70
2020-03-15 12:00:00 19.6 16 Norte 43 Noroeste 0 1018.7 0.9 72
2020-03-15 11:00:00 19.1 15 Norte 45 Norte 0 1018.3 1.2 77
2020-03-15 10:00:00 18.6 14 Norte 37 Norte 0 1018.1 1.5 76
2020-03-15 09:00:00 17.7 15 Noroeste 38 Nordeste 0 1017.8 1.3 81
2020-03-15 08:00:00 17.7 14 Noroeste 36 Noroeste 0 1017.1 1 79
2020-03-15 07:00:00 17.1 16 Norte 33 Norte 0 1016.6 0.7 82
2020-03-15 06:00:00 17.1 11 Norte 36 Noroeste 0 1016.5 0 83
2020-03-15 05:00:00 17.3 13 Noroeste 32 Norte 0 1016.1 -0.6 81
2020-03-15 04:00:00 17.5 19 Norte 38 Norte 0 1015.9 -1.3 82
2020-03-15 03:00:00 17.6 15 Norte 47 Norte 0 1016.5 -1.1 83
2020-03-15 02:00:00 17.6 13 Norte 43 Nordeste 0 1016.7 -1 78
2020-03-15 01:00:00 17.7 15 Norte 35 Norte 0 1017.2 -0.5 77
2020-03-15 00:00:00 17.8 15 Norte 36 Noroeste 0 1017.6 0.2 78
2020-03-14 23:00:00 18 12 Noroeste 39 Noroeste 0 1017.7 0.8 78
2020-03-14 22:00:00 18 13 Noroeste 38 Noroeste 0 1017.7 1 77
2020-03-14 21:00:00 18.1 16 Norte 34 Norte 0 1017.4 0.6 77
2020-03-14 20:00:00 18.4 14 Norte 34 Norte 0 1016.9 0.4 77
2020-03-14 19:00:00 18.6 10 Noroeste 35 Noroeste 0 1016.7 0.4 76
2020-03-14 18:00:00 19.5 10 Norte 36 Nordeste 0 1016.8 0.2 77
2020-03-14 17:00:00 20 11 Norte 38 Noroeste 0 1016.5 -0.8 75
2020-03-14 16:00:00 20.8 21 Noroeste 46 Nordeste 0 1016.3 -1.5 67
2020-03-14 15:00:00 21.3 12 Noroeste 38 Oeste 0 1016.6 -1.5 62
2020-03-14 14:00:00 21.3 13 Noroeste 35 Noroeste 0 1017.3 -0.8 62
2020-03-14 13:00:00 20.1 19 Noroeste 41 Noroeste 0 1017.8 0.2 69
2020-03-14 12:00:00 20 18 Noroeste 42 Oeste 0 1018.1 0.9 70
2020-03-14 11:00:00 20.1 14 Noroeste 45 Noroeste 0 1018.1 1.6 71
2020-03-14 10:00:00 19.8 14 Noroeste 41 Noroeste 0 1017.6 1.2 75
2020-03-14 09:00:00 19.1 15 Norte 43 Norte 0 1017.2 1.1 76
2020-03-14 08:00:00 18.3 14 Noroeste 43 Norte 0 1016.5 0.4 79
2020-03-14 07:00:00 17.9 16 Noroeste 39 Oeste 0 1016.4 0 79
2020-03-14 06:00:00 18.1 16 Noroeste 43 Noroeste 0 1016.1 -0.7 80
2020-03-14 05:00:00 18 15 Noroeste 43 Noroeste 0 1016.1 -1 80
2020-03-14 04:00:00 18.3 19 Noroeste 43 Noroeste 0 1016.4 -1.1 77
2020-03-14 03:00:00 18.5 21 Noroeste 45 Noroeste 0 1016.8 -1.2 77
2020-03-14 02:00:00 18.5 19 Noroeste 55 Noroeste 0 1017.1 -0.8 81
2020-03-14 01:00:00 18.6 22 Noroeste 50 Noroeste 0 1017.5 -0.2 81
2020-03-14 00:00:00 18.8 24 Noroeste 54 Oeste 0 1018 0.9 82
2020-03-13 23:00:00 19 24 Noroeste 50 Noroeste 0 1017.9 1.2 81
2020-03-13 22:00:00 19.2 27 Noroeste 53 Norte 0 1017.7 1.3 80
2020-03-13 21:00:00 19.2 24 Noroeste 54 Noroeste 0 1017.1 0.9 78
2020-03-13 20:00:00 19.3 22 Noroeste 46 Noroeste 0 1016.7 0.4 77
2020-03-13 19:00:00 19.7 23 Noroeste 46 Noroeste 0 1016.4 0 77
2020-03-13 18:00:00 20.3 21 Noroeste 42 Noroeste 0 1016.2 -0.6 74
2020-03-13 17:00:00 21.1 18 Noroeste 39 Norte 0 1016.3 -1 73
2020-03-13 16:00:00 21.3 17 Norte 43 Norte 0 1016.4 -1.2 71
2020-03-13 15:00:00 21.8 2 Sudoeste 30 Nordeste 0 1016.8 -1.7 76
2020-03-13 14:00:00 23.1 6 Norte 40 Norte 0 1017.3 -1 66
2020-03-13 13:00:00 22.5 9 Noroeste 21 Noroeste 0 1017.6 0 65
2020-03-13 12:00:00 21.6 5 Sudeste 15 Sur 0 1018.5 1.5 85
2020-03-13 11:00:00 20.8 12 Sur 38 Noroeste 0 1018.3 2.1 85
2020-03-13 10:00:00 21.6 15 Noroeste 34 Noroeste 0 1017.6 1.5 68
2020-03-13 09:00:00 21.5 9 Noroeste 27 Noroeste 0 1017 2.1 59
2020-03-13 08:00:00 20.2 12 Noroeste 26 Norte 0 1016.2 1.3 65
2020-03-13 07:00:00 20.1 11 Noroeste 44 Noroeste 0 1016.1 1.2 65
2020-03-13 06:00:00 20.4 17 Noroeste 45 Noroeste 0 1014.9 -0.2 59
2020-03-13 05:00:00 21.2 14 Noroeste 39 Norte 0 1014.9 -1 53
2020-03-13 04:00:00 21.7 15 Norte 32 Noroeste 0 1014.9 -1.2 50
2020-03-13 03:00:00 21.9 20 Norte 36 Norte 0 1015.1 -1.2 47
2020-03-13 02:00:00 21.3 3 Este 23 Nordeste 0 1015.9 -1 60
2020-03-13 01:00:00 21 3 Nordeste 28 Norte 0 1016.1 -0.6 66
2020-03-13 00:00:00 22.6 16 Norte 24 Norte 0 1016.3 0.1 47
2020-03-12 23:00:00 19 0 Calma 0 Calma 0 1016.9 1 91
2020-03-12 22:00:00 19 0 Calma 8 Sur 0 1016.7 1.3 92
2020-03-12 21:00:00 19.7 0 Calma 6 Sudeste 0 1016.2 0.6 91
2020-03-12 20:00:00 19.8 0 Calma 9 Sur 0 1015.9 0.4 90
2020-03-12 19:00:00 20.2 6 Sudeste 9 Sur 0 1015.4 0.1 90
2020-03-12 18:00:00 20.7 9 Sur 15 Sur 0 1015.6 0.1 91
2020-03-12 17:00:00 21.2 10 Sur 16 Sur 0 1015.5 -0.5 89
2020-03-12 16:00:00 20.9 13 Sur 17 Sur 0 1015.3 -1.1 91
2020-03-12 15:00:00 21 13 Sur 18 Sur 0 1015.5 -1.4 90
2020-03-12 14:00:00 20.7 14 Sur 21 Sur 0 1016 -0.9 90
2020-03-12 13:00:00 21 14 Sur 19 Sur 0 1016.4 -0.2 86
2020-03-12 12:00:00 21.5 8 Sur 15 Sur 0 1016.9 0.7 80
2020-03-12 11:00:00 20.5 12 Sur 18 Sur 0 1016.9 1.5 83
2020-03-12 10:00:00 20.3 12 Sur 15 Sur 0 1016.6 1.4 87
2020-03-12 09:00:00 20.5 0 Calma 9 Norte 0 1016.2 2 80
2020-03-12 08:00:00 18.4 5 Noroeste 13 Noroeste 0 1015.4 1.6 86
2020-03-12 07:00:00 18.2 5 Oeste 12 Oeste 0 1015.2 1.5 92
2020-03-12 06:00:00 17.8 0 Calma 14 Sur 0 1014.2 0.2 91
2020-03-12 05:00:00 17.6 5 Sudeste 14 Este 0 1013.8 -0.8 95
2020-03-12 04:00:00 19.1 5 Este 20 Norte 0 1013.7 -1.5 93
2020-03-12 03:00:00 25 10 Noroeste 24 Norte 0 1014 -1.8 23
2020-03-12 02:00:00 24.1 10 Noroeste 20 Noroeste 0 1014.6 -1.8 23
2020-03-12 01:00:00 23.5 10 Noroeste 22 Noroeste 0 1015.2 -1.1 26
2020-03-12 00:00:00 17.8 9 Norte 17 Norte 0 1015.8 -0.2 89
2020-03-11 23:00:00 18.2 0 Calma 12 Sur 0 1016.4 0.9 95
2020-03-11 22:00:00 18.7 0 Calma 9 Sudeste 0 1016.3 1.1 95
2020-03-11 21:00:00 19 0 Calma 5 Este 0 1016 1 95
2020-03-11 20:00:00 19.2 4 Sur 8 Sur 0 1015.5 0.4 95
2020-03-11 19:00:00 19.8 7 Sur 13 Sudeste 0 1015.2 0 94
2020-03-11 18:00:00 20.6 9 Sur 17 Sur 0 1015 -0.5 92
2020-03-11 17:00:00 21 9 Sur 17 Sur 0 1015.1 -1.1 89
2020-03-11 16:00:00 21.8 6 Sur 12 Sur 0 1015.2 -1.5 86
2020-03-11 15:00:00 21.1 8 Sur 13 Sur 0 1015.5 -1.6 89
2020-03-11 14:00:00 20.1 11 Sur 14 Sur 0 1016.2 -0.8 92
2020-03-11 13:00:00 20.3 8 Sudeste 14 Sudeste 0 1016.7 -0.3 91
2020-03-11 12:00:00 20.2 9 Sudeste 17 Sur 0 1017.1 0.4 91
2020-03-11 11:00:00 20.1 6 Sur 11 Este 0 1017 1 84
2020-03-11 10:00:00 19.2 4 Norte 9 Noroeste 0 1017 1.3 70
2020-03-11 09:00:00 17.1 7 Noroeste 10 Noroeste 0 1016.7 1.2 72
2020-03-11 08:00:00 16.6 5 Noroeste 10 Noroeste 0 1016 0.6 79
2020-03-11 07:00:00 16.9 4 Noroeste 9 Noroeste 0 1015.7 0.3 83
2020-03-11 06:00:00 17.3 3 Oeste 9 Noroeste 0 1015.5 -0.3 91
2020-03-11 05:00:00 17.7 3 Noroeste 12 Sur 0 1015.4 -1 95
2020-03-11 04:00:00 18.2 3 Sudeste 20 Sur 0 1015.4 -1.8 93
2020-03-11 03:00:00 18.8 20 Sur 27 Sur 0 1015.8 -1.3 88
2020-03-11 02:00:00 17.8 4 Noroeste 13 Noroeste 0 1016.4 -1.3 68
2020-03-11 01:00:00 18.6 3 Sudeste 12 Sur 0 1017.2 -0.6 92
2020-03-11 00:00:00 18.1 0 Calma 13 Norte 0 1017.1 -0.1 82
2020-03-10 23:00:00 18.5 7 Norte 12 Norte 0 1017.7 0.7 92
2020-03-10 22:00:00 19.2 3 Este 17 Sur 0 1017.8 1 92
2020-03-10 21:00:00 19.6 3 Norte 10 Norte 0 1017.2 0.5 94
2020-03-10 20:00:00 19.5 4 Sudeste 12 Sudeste 0 1017 0.1 95
2020-03-10 19:00:00 19.9 4 Este 42 Sur 0 1016.8 -0.4 94
2020-03-10 18:00:00 21.1 7 Sur 16 Sur 0 1016.7 -1.5 91
2020-03-10 17:00:00 24.5 2 Sudeste 12 Sudeste 0 1016.9 -1.7 65
2020-03-10 16:00:00 22.7 2 Este 24 Sur 0 1017.2 -1.9 83
2020-03-10 15:00:00 20.5 18 Sur 27 Sur 0 1018.2 -1.4 93
2020-03-10 14:00:00 22.5 8 Este 17 Este 0 1018.6 -1 86
2020-03-10 13:00:00 22.8 4 Este 18 Sur 0 1019.1 -0.3 83
2020-03-10 12:00:00 21.3 12 Sur 18 Sur 0 1019.6 0.9 90
2020-03-10 11:00:00 23 4 Sudeste 15 Sudeste 0 1019.6 1.6 75
2020-03-10 10:00:00 23.4 4 Este 15 Este 0 1019.4 2 73
2020-03-10 09:00:00 22.1 2 Este 12 Este 0 1018.7 1.8 81
2020-03-10 08:00:00 20.9 5 Este 22 Noroeste 0 1018 1.4 83
2020-03-10 07:00:00 24.1 12 Norte 26 Norte 0 1017.4 0.5 32
2020-03-10 06:00:00 24.5 12 Norte 27 Nordeste 0 1016.9 -0.7 32
2020-03-10 05:00:00 24.1 14 Norte 29 Norte 0 1016.6 -1.3 33
2020-03-10 04:00:00 24.2 22 Norte 33 Nordeste 0 1016.9 -1.6 34
2020-03-10 03:00:00 24.1 18 Norte 29 Norte 0 1017.6 -1.4 35
2020-03-10 02:00:00 23.5 11 Noroeste 28 Noroeste 0 1017.9 -1.3 35
2020-03-10 01:00:00 23.4 10 Norte 19 Oeste 0 1018.5 -0.5 38
2020-03-10 00:00:00 23.4 9 Noroeste 20 Norte 0 1019 0.2 45